Time;durP1;ratioP1;P1;durP2;ratioP2;P2;SDS_P1;SDS_P2;PMS_P1;PMS_P2;Temp;Humidity;BMP_temperature;BMP_pressure;BME280_temperature;BME280_humidity;BME280_pressure;Samples;Min_cycle;Max_cycle;Signal;HPM_P1;HPM_P2
2021/05/02 00:00:09;;;;;;;15.15;9.73;;;;;;;14.32;90.02;97182.09;5027782;28;20030;-63
2021/05/02 00:02:35;;;;;;;15.63;11.00;;;;;;;14.33;90.18;97173.44;5024406;28;20067;-65
2021/05/02 00:05:00;;;;;;;18.05;11.63;;;;;;;14.27;90.53;97168.63;5023361;28;20030;-65
2021/05/02 00:07:26;;;;;;;20.02;13.73;;;;;;;14.34;90.36;97179.44;5021946;28;20032;-65
2021/05/02 00:09:53;;;;;;;16.25;12.65;;;;;;;14.30;89.73;97181.31;5024167;28;20030;-64
2021/05/02 00:12:18;;;;;;;18.33;13.13;;;;;;;14.29;90.34;97181.44;5021655;28;20050;-64
2021/05/02 00:14:44;;;;;;;17.95;13.90;;;;;;;14.29;90.00;97166.81;5024287;28;20036;-66
2021/05/02 00:17:09;;;;;;;19.33;13.60;;;;;;;14.35;90.39;97165.59;5023351;28;20037;-66
2021/05/02 00:19:38;;;;;;;16.92;13.27;;;;;;;14.35;90.09;97163.88;5021997;28;20430;-65
2021/05/02 00:22:04;;;;;;;24.75;16.08;;;;;;;14.33;89.45;97165.72;5027385;28;20060;-65
2021/05/02 00:24:31;;;;;;;25.67;17.08;;;;;;;14.46;88.55;97166.69;5022462;28;20144;-65
2021/05/02 00:26:57;;;;;;;21.08;16.08;;;;;;;14.34;88.90;97169.91;5023322;28;20287;-65
2021/05/02 00:29:23;;;;;;;20.70;14.77;;;;;;;14.32;89.22;97163.22;5023068;28;20045;-66
2021/05/02 00:31:49;;;;;;;21.60;14.77;;;;;;;14.30;89.12;97152.16;5021589;28;20030;-65
2021/05/02 00:34:15;;;;;;;20.92;16.13;;;;;;;14.24;89.93;97135.28;5024606;28;20026;-66
2021/05/02 00:36:40;;;;;;;23.58;16.95;;;;;;;14.22;90.42;97110.50;5022456;28;20084;-65
2021/05/02 00:39:07;;;;;;;23.38;16.17;;;;;;;14.22;90.40;97090.72;5019394;28;20028;-65
2021/05/02 00:41:36;;;;;;;26.67;18.77;;;;;;;14.17;89.95;97085.03;5022852;28;20413;-65
2021/05/02 00:44:01;;;;;;;24.92;19.67;;;;;;;14.10;90.20;97091.44;5021743;28;20072;-65
2021/05/02 00:46:33;;;;;;;27.13;20.52;;;;;;;14.09;89.81;97087.19;5021486;28;20382;-65
2021/05/02 00:49:07;;;;;;;27.58;20.58;;;;;;;14.09;89.69;97092.34;5022781;28;20088;-65
2021/05/02 00:51:38;;;;;;;28.60;20.20;;;;;;;14.03;89.73;97069.53;5024106;28;20379;-65
2021/05/02 00:54:27;;;;;;;27.20;20.50;;;;;;;14.01;89.50;97072.19;5022504;28;20037;-65
2021/05/02 00:57:14;;;;;;;29.60;19.85;;;;;;;14.02;89.82;97075.59;5022636;28;20061;-64
2021/05/02 01:00:06;;;;;;;31.25;20.40;;;;;;;13.98;89.73;97074.94;5023664;28;20033;-65
2021/05/02 01:02:34;;;;;;;27.40;20.00;;;;;;;13.92;89.98;97077.06;5021620;28;20068;-65
2021/05/02 01:05:04;;;;;;;30.48;22.05;;;;;;;13.90;90.57;97071.13;5023139;28;20037;-65
2021/05/02 01:07:38;;;;;;;32.45;23.85;;;;;;;13.87;90.03;97061.84;5022182;28;20033;-65
2021/05/02 01:10:15;;;;;;;33.92;24.15;;;;;;;13.86;90.21;97054.19;5021579;28;20028;-65
2021/05/02 01:12:45;;;;;;;33.35;23.65;;;;;;;13.83;90.01;97047.50;5022984;28;20109;-65
2021/05/02 01:15:13;;;;;;;33.05;23.48;;;;;;;13.80;89.68;97044.22;5024926;28;20048;-65
2021/05/02 01:17:42;;;;;;;31.77;24.35;;;;;;;13.80;90.21;97037.34;5024250;28;20045;-66
2021/05/02 01:20:10;;;;;;;34.88;23.08;;;;;;;13.71;89.49;97024.97;5024326;28;20033;-65
2021/05/02 01:22:38;;;;;;;35.10;24.02;;;;;;;13.76;89.64;97027.28;5019148;28;20389;-66
2021/05/02 01:25:04;;;;;;;36.10;25.40;;;;;;;13.72;89.99;97027.47;5020716;28;20077;-65
2021/05/02 01:27:31;;;;;;;37.78;25.15;;;;;;;13.73;90.17;97026.56;5022223;28;20041;-65
2021/05/02 01:29:58;;;;;;;36.08;24.65;;;;;;;13.66;90.05;97027.00;5024122;28;20040;-66
2021/05/02 01:32:26;;;;;;;34.80;24.13;;;;;;;13.62;90.40;97017.81;5024401;28;20033;-65
2021/05/02 01:34:53;;;;;;;39.28;25.83;;;;;;;13.56;90.30;97003.53;5019325;28;20121;-65
2021/05/02 01:37:20;;;;;;;35.38;25.33;;;;;;;13.49;90.46;96997.06;5023692;28;20344;-65
2021/05/02 01:39:46;;;;;;;39.63;26.70;;;;;;;13.46;90.95;96993.81;5024234;28;20030;-65
2021/05/02 01:42:12;;;;;;;39.67;26.08;;;;;;;13.43;91.23;96988.84;5023574;28;20072;-65
2021/05/02 01:44:37;;;;;;;39.60;25.58;;;;;;;13.40;90.86;96994.19;5021553;28;20315;-65
2021/05/02 01:47:15;;;;;;;40.35;28.00;;;;;;;13.40;91.61;96996.75;5021594;28;20156;-66
2021/05/02 01:49:56;;;;;;;43.15;28.60;;;;;;;13.22;91.84;97008.91;5024325;28;20120;-65
2021/05/02 01:52:23;;;;;;;44.40;29.20;;;;;;;13.31;91.70;97003.25;5024413;28;20053;-65
2021/05/02 01:54:49;;;;;;;40.35;28.08;;;;;;;13.32;91.62;97007.50;5022696;28;20030;-65
2021/05/02 01:57:35;;;;;;;39.70;28.63;;;;;;;13.34;92.15;96989.38;5021818;28;20029;-65
2021/05/02 02:00:12;;;;;;;37.97;26.65;;;;;;;13.31;92.21;96974.09;5020146;28;20046;-65
2021/05/02 02:02:38;;;;;;;39.25;29.33;;;;;;;13.25;91.88;96964.97;5021869;28;20140;-65
2021/05/02 02:05:05;;;;;;;43.95;29.10;;;;;;;13.22;92.45;96957.44;5021729;28;20033;-65
2021/05/02 02:07:31;;;;;;;43.85;30.10;;;;;;;13.23;92.46;96961.69;5023205;28;20032;-65
2021/05/02 02:09:57;;;;;;;49.92;29.20;;;;;;;13.19;92.65;96965.34;5023586;28;20034;-65
2021/05/02 02:12:23;;;;;;;42.55;29.83;;;;;;;13.15;92.83;96963.84;5025391;28;20148;-65
2021/05/02 02:14:51;;;;;;;46.85;29.25;;;;;;;13.17;93.60;96944.00;5023098;28;20375;-65
2021/05/02 02:17:18;;;;;;;45.22;30.70;;;;;;;13.15;93.79;96961.28;5027399;28;20052;-65
2021/05/02 02:19:44;;;;;;;47.60;30.67;;;;;;;13.19;93.93;96965.34;5024906;28;20025;-65
2021/05/02 02:22:10;;;;;;;48.45;30.75;;;;;;;13.25;93.98;96957.25;5025045;28;20072;-65
2021/05/02 02:24:41;;;;;;;41.83;28.75;;;;;;;13.29;93.70;96945.88;5023787;28;20045;-65
2021/05/02 02:27:08;;;;;;;44.75;30.30;;;;;;;13.34;93.33;96928.44;5027568;28;20199;-65
2021/05/02 02:29:42;;;;;;;45.58;31.48;;;;;;;13.26;93.48;96923.72;5026986;28;20025;-65
2021/05/02 02:32:09;;;;;;;46.70;29.73;;;;;;;13.26;93.84;96925.47;5026015;28;20036;-65
2021/05/02 02:34:41;;;;;;;41.95;28.65;;;;;;;13.24;93.89;96915.25;5043798;28;20044;-65
2021/05/02 02:37:06;;;;;;;47.20;30.75;;;;;;;13.22;93.72;96914.53;5027076;28;20017;-65
2021/05/02 02:39:32;;;;;;;48.33;32.38;;;;;;;13.20;94.67;96936.09;5024604;28;20079;-65
2021/05/02 02:42:01;;;;;;;47.47;32.55;;;;;;;13.27;94.12;96950.28;5026601;28;20057;-65
2021/05/02 02:44:28;;;;;;;49.03;32.13;;;;;;;13.29;93.17;96956.16;5023348;28;20087;-65
2021/05/02 02:46:57;;;;;;;46.20;31.65;;;;;;;13.33;93.56;96947.34;5026033;28;20030;-65
2021/05/02 02:49:27;;;;;;;53.50;33.17;;;;;;;13.20;94.05;96948.97;5023270;28;20029;-65
2021/05/02 02:51:56;;;;;;;51.55;29.55;;;;;;;13.31;93.59;96948.38;5025504;28;20029;-65
2021/05/02 02:54:25;;;;;;;49.60;30.63;;;;;;;13.25;93.75;96954.69;5025878;28;20041;-65
2021/05/02 02:56:57;;;;;;;51.50;30.15;;;;;;;13.14;94.17;96957.03;5025755;28;20041;-65
2021/05/02 02:59:26;;;;;;;47.92;31.23;;;;;;;13.03;94.16;96954.19;5023749;28;20033;-65
2021/05/02 03:01:54;;;;;;;42.40;28.33;;;;;;;13.10;94.46;96950.38;5026668;28;20041;-65
2021/05/02 03:04:23;;;;;;;46.88;28.67;;;;;;;13.10;93.70;96953.81;5025866;28;20318;-65
2021/05/02 03:06:52;;;;;;;45.42;29.27;;;;;;;13.08;93.57;96952.19;5023275;28;20025;-65
2021/05/02 03:09:19;;;;;;;41.15;27.38;;;;;;;13.09;93.97;96934.09;5024707;28;20485;-65
2021/05/02 03:11:45;;;;;;;40.67;27.02;;;;;;;13.11;94.28;96946.94;5026634;28;20037;-65
2021/05/02 03:14:12;;;;;;;40.50;26.58;;;;;;;13.13;94.92;96943.34;5023272;28;20280;-65
2021/05/02 03:16:40;;;;;;;49.05;28.75;;;;;;;13.24;94.50;96938.41;5022261;28;20284;-65
2021/05/02 03:19:27;;;;;;;44.80;28.15;;;;;;;13.27;94.65;96937.41;5024565;28;20430;-65
2021/05/02 03:21:59;;;;;;;40.40;26.95;;;;;;;13.24;94.29;96948.69;5026558;28;20034;-65
2021/05/02 03:24:29;;;;;;;37.03;23.42;;;;;;;13.37;94.80;96984.03;5024885;28;20271;-65
2021/05/02 03:27:01;;;;;;;33.90;22.45;;;;;;;13.36;94.54;97019.28;5026640;28;20071;-65
2021/05/02 03:29:33;;;;;;;22.73;16.00;;;;;;;13.61;92.10;97027.28;5025559;28;20030;-65
2021/05/02 03:32:04;;;;;;;19.42;13.60;;;;;;;13.87;88.28;97030.94;5022968;28;20033;-64
2021/05/02 03:34:30;;;;;;;17.85;12.13;;;;;;;13.87;83.52;97056.69;5026257;28;20037;-64
2021/05/02 03:36:59;;;;;;;14.35;9.68;;;;;;;13.86;80.73;97051.63;5022301;28;20037;-64
2021/05/02 03:39:25;;;;;;;10.90;8.70;;;;;;;13.77;79.77;97049.56;5024204;28;20084;-66
2021/05/02 03:41:50;;;;;;;9.65;6.97;;;;;;;13.56;79.30;97052.44;5024258;28;20029;-65
2021/05/02 03:44:16;;;;;;;5.72;5.10;;;;;;;13.32;78.96;97055.56;5022319;28;20387;-65
2021/05/02 03:46:41;;;;;;;6.63;5.55;;;;;;;13.23;79.26;97070.59;5022359;28;20040;-66
2021/05/02 03:49:08;;;;;;;5.68;5.13;;;;;;;13.23;79.12;97059.47;5024499;28;20030;-66
2021/05/02 03:51:39;;;;;;;4.55;4.00;;;;;;;13.04;78.88;97077.59;5025406;28;20116;-66
2021/05/02 03:54:06;;;;;;;3.45;3.08;;;;;;;12.88;79.22;97083.66;5027408;28;20095;-66
2021/05/02 03:56:36;;;;;;;2.40;2.20;;;;;;;12.77;79.36;97076.50;5020841;28;20044;-66
2021/05/02 03:59:10;;;;;;;2.35;1.55;;;;;;;12.59;79.43;97087.75;5026753;28;20108;-66
2021/05/02 04:01:40;;;;;;;1.52;1.42;;;;;;;12.64;78.39;97084.03;5023592;28;20061;-66
2021/05/02 04:04:06;;;;;;;1.50;1.40;;;;;;;12.53;75.99;97082.91;5022515;28;20420;-66
2021/05/02 04:06:31;;;;;;;1.20;1.10;;;;;;;12.55;75.07;97092.22;5023580;28;20037;-67
2021/05/02 04:08:57;;;;;;;0.80;0.80;;;;;;;12.47;74.00;97107.22;5022374;28;20441;-66
2021/05/02 04:11:22;;;;;;;0.60;0.60;;;;;;;12.46;73.13;97114.97;5022146;28;20026;-66
2021/05/02 04:13:48;;;;;;;0.70;0.70;;;;;;;12.46;72.90;97115.81;5027890;28;20100;-66
2021/05/02 04:16:15;;;;;;;0.82;0.82;;;;;;;12.46;71.73;97123.53;5021535;28;20275;-65
2021/05/02 04:18:41;;;;;;;0.75;0.75;;;;;;;12.56;71.06;97119.56;5023726;28;20035;-66
2021/05/02 04:21:07;;;;;;;0.60;0.60;;;;;;;12.54;70.34;97130.84;5026720;28;20426;-66
2021/05/02 04:23:35;;;;;;;0.60;0.60;;;;;;;12.56;69.88;97135.00;5023943;28;20033;-66
2021/05/02 04:26:01;;;;;;;1.95;0.60;;;;;;;12.56;70.01;97137.56;5030759;28;20071;-66
2021/05/02 04:28:27;;;;;;;0.77;0.77;;;;;;;12.63;70.22;97125.25;5022345;28;20090;-66
2021/05/02 04:30:53;;;;;;;0.60;0.60;;;;;;;12.52;69.46;97163.53;5022217;28;20372;-66
2021/05/02 04:33:18;;;;;;;1.42;1.33;;;;;;;12.53;69.04;97155.72;5022643;28;20287;-66
2021/05/02 04:35:43;;;;;;;0.77;0.70;;;;;;;12.54;69.27;97154.81;5024859;28;20025;-66
2021/05/02 04:38:09;;;;;;;0.50;0.50;;;;;;;12.48;69.13;97144.81;5022808;28;20030;-66
2021/05/02 04:40:34;;;;;;;0.45;0.45;;;;;;;12.48;67.33;97160.25;5022928;28;20586;-66
2021/05/02 04:43:00;;;;;;;0.70;0.70;;;;;;;12.48;67.44;97170.53;5019747;28;20096;-65
2021/05/02 04:45:25;;;;;;;1.05;1.00;;;;;;;12.50;67.41;97160.19;5023041;28;20065;-66
2021/05/02 04:47:53;;;;;;;1.38;0.60;;;;;;;12.54;66.00;97167.66;5021270;28;20069;-65
2021/05/02 04:50:19;;;;;;;1.00;0.63;;;;;;;12.55;65.86;97171.91;5019564;28;20026;-65
2021/05/02 04:52:44;;;;;;;0.70;0.70;;;;;;;12.53;65.05;97186.56;5022205;28;20109;-65
2021/05/02 04:55:10;;;;;;;0.80;0.80;;;;;;;12.55;64.84;97195.06;5022445;28;20348;-65
2021/05/02 04:57:36;;;;;;;0.60;0.60;;;;;;;12.60;64.52;97193.06;5022213;28;20075;-65
2021/05/02 05:00:01;;;;;;;1.30;0.60;;;;;;;12.62;64.07;97201.53;5020625;28;20032;-66
2021/05/02 05:02:28;;;;;;;0.82;0.82;;;;;;;12.55;63.29;97256.75;5024482;28;20160;-65
2021/05/02 05:04:54;;;;;;;0.57;0.57;;;;;;;12.62;63.18;97198.13;5022975;28;20121;-65
2021/05/02 05:07:19;;;;;;;0.60;0.60;;;;;;;12.68;62.16;97216.66;5023522;28;20156;-65
2021/05/02 05:09:44;;;;;;;0.70;0.70;;;;;;;12.68;62.39;97220.97;5024259;28;20022;-65
2021/05/02 05:12:10;;;;;;;0.60;0.60;;;;;;;12.57;61.42;97208.63;5021937;28;20488;-64
2021/05/02 05:14:35;;;;;;;0.50;0.50;;;;;;;12.57;61.58;97224.06;5023290;28;20033;-65
2021/05/02 05:17:00;;;;;;;0.70;0.70;;;;;;;12.51;61.35;97272.41;5020627;28;20025;-66
2021/05/02 05:19:26;;;;;;;3.50;0.70;;;;;;;12.58;60.69;97238.59;5023267;28;20032;-66
2021/05/02 05:21:51;;;;;;;0.60;0.60;;;;;;;12.53;61.67;97240.56;5023151;28;20037;-65
2021/05/02 05:24:17;;;;;;;0.60;0.60;;;;;;;12.39;61.48;97260.94;5025676;28;20083;-65
2021/05/02 05:26:42;;;;;;;0.60;0.60;;;;;;;12.47;62.03;97243.44;5021202;28;20135;-65
2021/05/02 05:29:07;;;;;;;0.50;0.50;;;;;;;12.48;60.54;97245.09;5019452;28;20033;-66
2021/05/02 05:31:33;;;;;;;0.52;0.52;;;;;;;12.45;59.72;97245.25;5023416;28;20034;-65
2021/05/02 05:33:58;;;;;;;0.63;0.63;;;;;;;12.42;58.74;97254.84;5022005;28;20394;-65
2021/05/02 05:36:23;;;;;;;0.60;0.60;;;;;;;12.36;59.21;97245.69;5024333;28;20029;-65
2021/05/02 05:38:49;;;;;;;0.82;0.82;;;;;;;12.42;59.01;97260.81;5022470;28;20029;-65
2021/05/02 05:41:14;;;;;;;0.63;0.63;;;;;;;12.37;58.13;97260.19;5023324;28;20022;-64
2021/05/02 05:43:40;;;;;;;0.55;0.55;;;;;;;12.39;57.94;97271.22;5020951;28;20104;-65
2021/05/02 05:46:05;;;;;;;0.68;0.57;;;;;;;12.40;57.71;97272.91;5021514;28;20310;-65
2021/05/02 05:48:32;;;;;;;0.70;0.70;;;;;;;12.34;57.90;97273.22;5026719;28;20069;-65
2021/05/02 05:50:57;;;;;;;1.65;0.50;;;;;;;12.42;56.72;97273.66;5024164;28;20080;-65
2021/05/02 05:53:23;;;;;;;0.60;0.60;;;;;;;12.47;56.47;97288.88;5023134;28;20441;-65
2021/05/02 05:55:48;;;;;;;2.15;0.50;;;;;;;12.35;56.52;97296.25;5024350;28;20418;-65
2021/05/02 05:58:14;;;;;;;0.70;0.55;;;;;;;12.35;55.55;97264.56;5025060;28;20026;-65
2021/05/02 06:00:39;;;;;;;3.60;0.80;;;;;;;12.34;56.57;97288.63;5026178;28;20065;-66
2021/05/02 06:03:05;;;;;;;0.50;0.50;;;;;;;12.38;55.25;97295.28;5027451;28;20160;-64
2021/05/02 06:05:30;;;;;;;0.55;0.55;;;;;;;12.40;55.10;97292.63;5026415;28;20034;-64
2021/05/02 06:07:55;;;;;;;0.60;0.60;;;;;;;12.32;55.89;97305.84;5025528;28;20025;-64
2021/05/02 06:10:21;;;;;;;0.68;0.68;;;;;;;12.33;55.98;97320.38;5025422;28;20025;-64
2021/05/02 06:12:46;;;;;;;0.70;0.70;;;;;;;12.24;56.47;97302.81;5024726;28;20049;-63
2021/05/02 06:15:13;;;;;;;0.70;0.70;;;;;;;12.23;55.79;97319.94;5028052;28;20103;-64
2021/05/02 06:17:39;;;;;;;1.60;0.57;;;;;;;12.15;55.61;97322.03;5025520;28;20058;-65
2021/05/02 06:20:05;;;;;;;0.50;0.50;;;;;;;12.18;55.82;97314.19;5025890;28;20699;-65
2021/05/02 06:22:31;;;;;;;0.57;0.57;;;;;;;12.23;54.60;97340.50;5029648;28;20049;-65
2021/05/02 06:24:56;;;;;;;0.50;0.50;;;;;;;12.31;54.83;97333.28;5024649;28;20096;-63
2021/05/02 06:27:22;;;;;;;0.60;0.60;;;;;;;12.28;54.65;97350.56;5024321;28;20395;-64
2021/05/02 06:29:47;;;;;;;0.60;0.60;;;;;;;12.26;54.86;97354.97;5024767;28;20083;-64
2021/05/02 06:32:12;;;;;;;1.05;0.60;;;;;;;12.52;54.58;97366.63;5024091;28;20026;-65
2021/05/02 06:34:38;;;;;;;0.60;0.60;;;;;;;12.60;53.96;97388.47;5026151;28;20033;-64
2021/05/02 06:37:03;;;;;;;0.85;0.70;;;;;;;12.63;53.88;97365.19;5027272;28;20026;-67
2021/05/02 06:39:29;;;;;;;0.50;0.50;;;;;;;12.49;53.71;97402.72;5024072;28;20038;-65
2021/05/02 06:41:55;;;;;;;0.47;0.47;;;;;;;12.34;54.42;97379.41;5028107;28;20036;-66
2021/05/02 06:44:21;;;;;;;0.60;0.60;;;;;;;12.25;54.06;97399.56;5027593;28;20341;-63
2021/05/02 06:46:47;;;;;;;1.55;1.30;;;;;;;12.44;54.02;97374.66;5020503;28;20037;-64
2021/05/02 06:49:12;;;;;;;1.58;1.27;;;;;;;12.69;53.08;97413.75;5021364;28;20035;-65
2021/05/02 06:51:39;;;;;;;4.53;1.25;;;;;;;12.84;52.02;97407.06;5023530;28;20022;-66
2021/05/02 06:54:05;;;;;;;1.13;1.13;;;;;;;12.99;52.40;97395.19;5024950;28;20056;-65
2021/05/02 06:56:32;;;;;;;2.28;1.13;;;;;;;13.12;52.05;97386.00;5023248;28;20080;-65
2021/05/02 06:58:57;;;;;;;0.73;0.73;;;;;;;13.13;51.89;97439.97;5025612;28;20444;-64
2021/05/02 07:01:23;;;;;;;0.65;0.63;;;;;;;13.20;52.53;97391.59;5028773;28;20034;-64
2021/05/02 07:03:49;;;;;;;7.07;3.25;;;;;;;13.28;51.46;97422.97;5025855;28;20025;-64
2021/05/02 07:06:15;;;;;;;2.28;1.83;;;;;;;13.33;49.99;97410.69;5023196;28;20030;-65
2021/05/02 07:08:41;;;;;;;11.43;3.88;;;;;;;13.43;50.04;97399.03;5026247;28;20033;-64
2021/05/02 07:11:06;;;;;;;0.80;0.75;;;;;;;13.68;49.31;97381.41;5024966;28;20415;-65
2021/05/02 07:13:32;;;;;;;1.30;1.20;;;;;;;13.35;49.37;97405.47;5024487;28;20057;-64
2021/05/02 07:16:01;;;;;;;0.75;0.75;;;;;;;13.20;50.19;97399.31;5023407;28;20281;-66
2021/05/02 07:18:35;;;;;;;1.30;1.20;;;;;;;13.32;49.02;97400.47;5023399;28;20068;-64
2021/05/02 07:21:00;;;;;;;1.27;1.20;;;;;;;13.23;49.55;97428.34;5024852;28;20044;-64
2021/05/02 07:23:26;;;;;;;1.50;1.40;;;;;;;13.01;50.00;97416.53;5028497;28;20079;-65
2021/05/02 07:25:51;;;;;;;1.33;1.23;;;;;;;12.98;49.52;97463.84;5025785;28;20169;-64
2021/05/02 07:28:17;;;;;;;1.63;1.52;;;;;;;13.16;49.85;97398.63;5023089;28;20095;-65
2021/05/02 07:30:42;;;;;;;0.60;0.60;;;;;;;13.20;49.46;97456.78;5025636;28;20022;-64
2021/05/02 07:33:08;;;;;;;0.70;0.70;;;;;;;12.96;49.85;97459.66;5025930;28;20029;-64
2021/05/02 07:35:33;;;;;;;0.95;0.95;;;;;;;13.16;49.84;97483.56;5040748;28;20021;-64
2021/05/02 07:37:59;;;;;;;0.68;0.68;;;;;;;13.37;48.70;97453.38;5026519;28;20091;-65
2021/05/02 07:40:24;;;;;;;0.68;0.68;;;;;;;13.37;49.25;97473.97;5024268;28;20347;-65
2021/05/02 07:42:50;;;;;;;0.60;0.60;;;;;;;13.43;48.74;97462.56;5026284;28;20029;-64
2021/05/02 07:45:15;;;;;;;0.80;0.80;;;;;;;13.34;49.97;97481.00;5023219;28;20030;-66
2021/05/02 07:47:41;;;;;;;0.70;0.70;;;;;;;13.21;49.25;97485.91;5027475;28;20030;-65
2021/05/02 07:50:07;;;;;;;0.65;0.65;;;;;;;13.17;49.15;97485.25;5022432;28;20034;-65
2021/05/02 07:52:33;;;;;;;68.80;65.50;;;;;;;13.07;49.28;97478.81;5026396;28;20034;-63
2021/05/02 07:54:59;;;;;;;1.17;0.95;;;;;;;12.86;49.83;97484.16;5024342;28;20043;-68
2021/05/02 07:57:24;;;;;;;0.75;0.75;;;;;;;12.80;49.47;97506.69;5024276;28;20029;-60
2021/05/02 07:59:50;;;;;;;0.90;0.90;;;;;;;12.91;50.67;97487.31;5025383;28;20026;-66
2021/05/02 08:02:18;;;;;;;0.77;0.52;;;;;;;12.72;49.39;97521.63;5032931;28;20043;-64
2021/05/02 08:04:43;;;;;;;4.13;3.45;;;;;;;12.57;49.02;97504.31;5025158;28;20092;-64
2021/05/02 08:07:09;;;;;;;0.60;0.60;;;;;;;12.62;49.77;97486.09;5024632;28;20322;-63
2021/05/02 08:09:35;;;;;;;1.08;0.82;;;;;;;12.42;50.05;97509.31;5030409;28;20060;-62
2021/05/02 08:12:02;;;;;;;0.77;0.77;;;;;;;12.48;50.39;97516.72;5024724;28;20295;-65
2021/05/02 08:14:27;;;;;;;0.60;0.60;;;;;;;12.32;49.77;97522.56;5024278;28;20064;-64
2021/05/02 08:16:53;;;;;;;0.90;0.70;;;;;;;12.31;50.96;97523.44;5024277;28;20437;-65
2021/05/02 08:19:19;;;;;;;93.20;86.65;;;;;;;12.22;50.12;97569.28;5024256;28;20303;-65
2021/05/02 08:21:45;;;;;;;1.52;1.42;;;;;;;12.28;50.20;97544.16;5024473;28;20037;-65
2021/05/02 08:24:12;;;;;;;8.13;2.75;;;;;;;12.37;50.30;97548.06;5026677;28;20374;-64
2021/05/02 08:26:38;;;;;;;1.95;0.68;;;;;;;12.51;49.63;97547.47;5024916;28;20589;-65
2021/05/02 08:29:03;;;;;;;319.23;299.83;;;;;;;12.56;49.72;97560.97;5023849;28;20291;-63
2021/05/02 08:31:29;;;;;;;0.70;0.70;;;;;;;12.58;49.20;97631.13;5022883;28;20049;-63
2021/05/02 08:33:54;;;;;;;0.60;0.60;;;;;;;12.71;49.02;97597.09;5023348;28;20033;-65
2021/05/02 08:36:20;;;;;;;0.60;0.60;;;;;;;12.84;48.65;97592.25;5040668;28;20125;-72
2021/05/02 08:38:45;;;;;;;0.70;0.70;;;;;;;12.99;48.18;97642.16;5024840;28;20036;-64
2021/05/02 08:41:10;;;;;;;0.70;0.70;;;;;;;12.94;48.56;97590.13;5024390;28;20029;-66
2021/05/02 08:43:36;;;;;;;0.50;0.50;;;;;;;13.06;48.38;97594.69;5023324;28;20415;-63
2021/05/02 08:46:03;;;;;;;1.30;0.70;;;;;;;13.22;47.62;97660.03;5021424;28;20093;-64
2021/05/02 08:48:28;;;;;;;0.80;0.80;;;;;;;13.23;47.60;97656.56;5023857;28;20083;-64
2021/05/02 08:50:57;;;;;;;0.90;0.90;;;;;;;13.34;48.62;97571.94;5024478;28;20041;-65
2021/05/02 08:53:24;;;;;;;0.80;0.80;;;;;;;13.35;46.99;97617.41;5025269;28;20040;-64
2021/05/02 08:55:51;;;;;;;0.85;0.50;;;;;;;13.17;47.61;97615.66;5023841;28;20063;-63
2021/05/02 08:58:18;;;;;;;1.35;0.65;;;;;;;13.30;47.33;97601.31;5025659;28;20363;-64
2021/05/02 09:00:45;;;;;;;1.85;0.60;;;;;;;13.38;46.96;97630.13;5023526;28;20119;-64
2021/05/02 09:03:11;;;;;;;0.60;0.60;;;;;;;13.41;47.76;97599.06;5023842;28;20061;-63
2021/05/02 09:05:44;;;;;;;1.95;0.60;;;;;;;13.41;47.16;97608.56;5022328;28;20057;-64
2021/05/02 09:08:16;;;;;;;0.65;0.65;;;;;;;13.33;47.53;97629.47;5024646;28;20052;-64
2021/05/02 09:10:47;;;;;;;1.17;0.60;;;;;;;13.83;47.92;97634.88;5022726;28;20310;-64
2021/05/02 09:13:14;;;;;;;1.98;0.70;;;;;;;13.86;46.46;97642.44;5023218;28;20054;-64
2021/05/02 09:15:40;;;;;;;0.50;0.50;;;;;;;13.90;47.44;97656.84;5021742;28;20025;-65
2021/05/02 09:18:18;;;;;;;0.70;0.70;;;;;;;13.31;47.72;97680.22;5022655;28;20038;-65
2021/05/02 09:20:53;;;;;;;0.60;0.60;;;;;;;13.06;48.10;97662.44;5023336;28;20026;-65
2021/05/02 09:23:19;;;;;;;0.90;0.88;;;;;;;12.79;48.13;97702.22;5028107;28;20026;-65
2021/05/02 09:25:50;;;;;;;0.60;0.60;;;;;;;12.61;48.72;97654.13;5026223;28;20045;-65
2021/05/02 09:28:17;;;;;;;0.80;0.80;;;;;;;12.49;48.59;97701.78;5027099;28;20390;-65
2021/05/02 09:30:43;;;;;;;0.73;0.68;;;;;;;12.51;48.78;97687.13;5028562;28;20517;-65
2021/05/02 09:33:23;;;;;;;1.23;0.85;;;;;;;12.51;48.65;97715.41;5026555;28;20029;-64
2021/05/02 09:35:49;;;;;;;1.48;0.88;;;;;;;12.39;49.57;97692.75;5036677;28;20099;-64
2021/05/02 09:38:17;;;;;;;0.70;0.70;;;;;;;12.27;49.70;97709.53;5028798;28;20076;-64
2021/05/02 09:40:56;;;;;;;1.10;1.10;;;;;;;12.48;48.68;97725.81;5027491;28;20044;-65
2021/05/02 09:43:39;;;;;;;0.60;0.60;;;;;;;12.64;48.14;97734.56;5025074;28;20034;-65
2021/05/02 09:46:24;;;;;;;0.50;0.50;;;;;;;12.69;47.83;97748.06;5028115;28;20070;-65
2021/05/02 09:49:10;;;;;;;1.95;1.80;;;;;;;12.58;47.65;97750.25;5027883;28;20045;-64
2021/05/02 09:51:44;;;;;;;2.13;1.92;;;;;;;12.76;47.87;97758.94;5027227;28;20378;-64
2021/05/02 09:54:12;;;;;;;1.05;0.93;;;;;;;12.83;47.58;97768.06;5026904;28;20391;-65
2021/05/02 09:57:02;;;;;;;1.92;1.10;;;;;;;13.04;47.01;97780.03;5027604;28;20379;-66
2021/05/02 09:59:33;;;;;;;0.60;0.60;;;;;;;13.26;46.48;97796.25;5026424;28;20025;-67
2021/05/02 10:02:11;;;;;;;1.42;1.42;;;;;;;13.26;46.48;97770.53;5025712;28;20080;-64
2021/05/02 10:04:45;;;;;;;62.42;56.38;;;;;;;12.76;46.71;97744.34;5023624;28;20364;-64
2021/05/02 10:07:15;;;;;;;142.10;129.27;;;;;;;12.53;47.55;97825.88;5024145;28;20379;-63
2021/05/02 10:09:42;;;;;;;3.20;2.38;;;;;;;12.62;47.82;97787.78;5025777;28;20029;-64
2021/05/02 10:12:09;;;;;;;1.83;1.70;;;;;;;12.54;47.35;97799.28;5025125;28;20022;-63
2021/05/02 10:14:36;;;;;;;1.70;1.60;;;;;;;12.41;48.29;97822.06;5024873;28;20036;-64
2021/05/02 10:17:01;;;;;;;2.35;2.15;;;;;;;12.24;48.40;97825.31;5026164;28;20291;-64
2021/05/02 10:19:28;;;;;;;4.15;2.90;;;;;;;12.24;48.56;97793.63;5025052;28;20113;-65
2021/05/02 10:21:54;;;;;;;4.18;2.22;;;;;;;11.98;49.38;97842.59;5025713;28;20108;-65
2021/05/02 10:24:19;;;;;;;3.50;1.77;;;;;;;11.85;49.48;97840.47;5024638;28;20116;-65
2021/05/02 10:26:45;;;;;;;2.13;1.45;;;;;;;11.98;49.51;97855.44;5022988;28;20029;-65
2021/05/02 10:29:11;;;;;;;4.03;2.22;;;;;;;11.99;49.79;97844.28;5025088;28;20026;-65
2021/05/02 10:31:41;;;;;;;4.18;2.58;;;;;;;11.79;50.01;97874.09;5024526;28;20028;-64
2021/05/02 10:34:26;;;;;;;3.47;1.90;;;;;;;11.98;50.61;97881.13;5024574;28;20036;-65
2021/05/02 10:37:24;;;;;;;1.38;0.90;;;;;;;12.06;50.46;97867.09;5025810;28;20302;-64
2021/05/02 10:40:08;;;;;;;8.45;3.13;;;;;;;12.07;50.01;97894.47;5026811;28;20033;-64
2021/05/02 10:42:54;;;;;;;5.13;2.38;;;;;;;12.26;49.94;97926.28;5028065;28;20017;-66
2021/05/02 10:45:54;;;;;;;1.42;1.33;;;;;;;12.64;49.69;97917.16;5026174;28;20109;-66
2021/05/02 10:48:23;;;;;;;9.00;3.22;;;;;;;12.35;49.24;97948.25;5023404;28;20084;-64
2021/05/02 10:50:51;;;;;;;7.22;2.65;;;;;;;12.22;50.08;97934.19;5025963;28;20033;-65
2021/05/02 10:53:19;;;;;;;5.22;2.67;;;;;;;12.41;50.40;97947.19;5025222;28;20029;-65
2021/05/02 10:55:52;;;;;;;9.88;3.30;;;;;;;12.56;49.75;97944.88;5023669;28;20029;-65
2021/05/02 10:58:31;;;;;;;9.98;3.75;;;;;;;12.67;49.60;97962.47;5026206;28;20021;-66
2021/05/02 11:01:03;;;;;;;1.25;1.25;;;;;;;12.71;49.02;97972.59;5025298;28;20091;-66
2021/05/02 11:03:41;;;;;;;9.68;6.55;;;;;;;13.06;48.80;97965.25;5021529;28;20044;-67
2021/05/02 11:06:14;;;;;;;143.15;134.68;;;;;;;12.86;49.04;97981.44;5025515;28;20029;-66
2021/05/02 11:08:57;;;;;;;87.07;81.40;;;;;;;13.02;49.13;97971.41;5024502;28;20318;-65
2021/05/02 11:11:38;;;;;;;7.75;2.72;;;;;;;12.66;49.45;97989.09;5027328;28;20032;-65
2021/05/02 11:14:07;;;;;;;428.30;268.50;;;;;;;12.92;49.05;98003.53;5027078;28;20049;-65
2021/05/02 11:16:43;;;;;;;442.07;271.07;;;;;;;13.12;48.04;98008.78;5024996;28;20042;-64
2021/05/02 11:19:24;;;;;;;370.30;288.97;;;;;;;12.59;48.79;98018.50;5024438;28;20032;-65
2021/05/02 11:21:55;;;;;;;423.87;293.07;;;;;;;12.19;50.16;98027.66;5023972;28;20177;-64
2021/05/02 11:24:25;;;;;;;438.57;290.33;;;;;;;12.12;50.78;98043.34;5022161;28;20017;-63
2021/05/02 11:29:57;;;;;;;439.55;282.98;;;;;;;12.42;50.89;98047.41;4992910;28;20056;-64
2021/05/02 11:34:58;;;;;;;467.17;325.57;;;;;;;12.07;51.75;98076.91;4994430;28;20066;-65
2021/05/02 11:37:45;;;;;;;335.60;295.70;;;;;;;12.05;52.00;98094.06;4993177;28;20486;-64